createdAt,value
2022-11-27T00:03:28.709Z,3.13
2022-11-27T00:06:16.405Z,2.76
2022-11-27T00:09:03.968Z,2.93
2022-11-27T00:11:51.643Z,3.92
2022-11-27T00:14:39.186Z,4.58
2022-11-27T00:17:26.766Z,4.63
2022-11-27T00:20:14.362Z,4.17
2022-11-27T00:23:01.927Z,4.37
2022-11-27T00:25:49.502Z,4.86
2022-11-27T00:28:37.042Z,4.81
2022-11-27T00:31:24.645Z,5.31
2022-11-27T00:34:12.197Z,4.76
2022-11-27T00:36:59.762Z,4.08
2022-11-27T00:39:47.283Z,3.64
2022-11-27T00:42:34.868Z,2.51
2022-11-27T00:45:22.458Z,1.89
2022-11-27T00:48:10.040Z,1.49
2022-11-27T00:50:57.590Z,1.59
2022-11-27T00:53:45.165Z,2.20
2022-11-27T00:56:32.739Z,2.60
2022-11-27T00:59:20.300Z,2.51
2022-11-27T01:02:07.940Z,1.93
2022-11-27T01:04:55.587Z,1.59
2022-11-27T01:07:43.285Z,1.66
2022-11-27T01:10:30.897Z,2.07
2022-11-27T01:13:18.447Z,2.17
2022-11-27T01:16:06.277Z,1.92
2022-11-27T01:18:53.858Z,2.42
2022-11-27T01:21:41.600Z,3.08
2022-11-27T01:24:29.169Z,3.77
2022-11-27T01:27:16.802Z,4.51
2022-11-27T01:30:04.354Z,4.46
2022-11-27T01:32:51.906Z,4.53
2022-11-27T01:35:39.474Z,4.99
2022-11-27T01:38:27.068Z,4.82
2022-11-27T01:41:14.611Z,4.38
2022-11-27T01:44:02.176Z,3.56
2022-11-27T01:46:49.770Z,4.56
2022-11-27T01:49:37.382Z,5.11
2022-11-27T01:52:24.954Z,5.16
2022-11-27T01:55:12.506Z,4.87
2022-11-27T01:58:00.084Z,5.47
2022-11-27T02:00:47.658Z,5.10
2022-11-27T02:03:35.218Z,4.29
2022-11-27T02:06:22.808Z,3.34
2022-11-27T02:09:10.367Z,2.30
2022-11-27T02:11:57.953Z,3.24
2022-11-27T02:14:45.482Z,3.88
2022-11-27T02:17:33.066Z,4.42
2022-11-27T02:20:20.637Z,4.77
2022-11-27T02:23:08.199Z,4.83
2022-11-27T02:25:55.766Z,5.21
2022-11-27T02:28:43.337Z,5.23
2022-11-27T02:31:30.974Z,5.33
2022-11-27T02:34:18.590Z,5.38
2022-11-27T02:37:06.144Z,5.60
2022-11-27T02:39:53.745Z,5.78
2022-11-27T02:42:41.286Z,5.82
2022-11-27T02:45:28.860Z,6.04
2022-11-27T02:48:16.402Z,6.28
2022-11-27T02:51:03.986Z,5.78
2022-11-27T02:53:51.554Z,5.59
2022-11-27T02:56:39.122Z,6.07
2022-11-27T02:59:26.680Z,6.23
2022-11-27T03:02:14.320Z,6.40
2022-11-27T03:05:01.925Z,6.63
2022-11-27T03:07:49.588Z,6.19
2022-11-27T03:10:37.227Z,4.36
2022-11-27T03:13:24.783Z,3.54
2022-11-27T03:16:12.381Z,4.81
2022-11-27T03:19:00.101Z,5.20
2022-11-27T03:21:47.643Z,5.48
2022-11-27T03:24:35.224Z,4.16
2022-11-27T03:27:22.790Z,4.47
2022-11-27T03:30:10.355Z,3.30
2022-11-27T03:32:57.910Z,2.74
2022-11-27T03:35:45.458Z,2.16
2022-11-27T03:38:33.029Z,1.21
2022-11-27T03:41:20.574Z,0.83
2022-11-27T03:44:08.144Z,1.45
2022-11-27T03:46:55.737Z,2.14
2022-11-27T03:49:43.340Z,2.82
2022-11-27T03:52:30.940Z,3.46
2022-11-27T03:55:18.505Z,3.54
2022-11-27T03:58:06.083Z,2.91
2022-11-27T04:00:53.645Z,2.44
2022-11-27T04:03:41.252Z,2.39
2022-11-27T04:06:28.898Z,2.13
2022-11-27T04:09:16.474Z,1.92
2022-11-27T04:12:04.037Z,2.31
2022-11-27T04:15:05.273Z,2.89
2022-11-27T04:17:52.959Z,3.05
2022-11-27T04:20:40.533Z,3.36
2022-11-27T04:23:28.110Z,4.06
2022-11-27T04:26:15.766Z,4.47
2022-11-27T04:29:05.297Z,4.84
2022-11-27T04:31:52.903Z,5.24
2022-11-27T04:34:40.716Z,5.38
2022-11-27T04:37:28.506Z,5.49
2022-11-27T04:40:16.068Z,5.71
2022-11-27T04:43:03.637Z,5.86
2022-11-27T04:45:51.178Z,5.96
2022-11-27T04:48:38.738Z,6.21
2022-11-27T04:51:26.286Z,6.08
2022-11-27T04:54:13.893Z,6.23
2022-11-27T04:57:01.445Z,5.94
2022-11-27T04:59:49.006Z,5.95
2022-11-27T05:02:36.598Z,6.04
2022-11-27T05:05:24.197Z,6.03
2022-11-27T05:08:11.775Z,5.71
2022-11-27T05:10:59.388Z,5.52
2022-11-27T05:13:47.013Z,5.43
2022-11-27T05:16:34.646Z,5.22
2022-11-27T05:19:22.243Z,5.28
2022-11-27T05:22:09.871Z,5.50
2022-11-27T05:24:57.439Z,5.48
2022-11-27T05:27:45.007Z,5.78
2022-11-27T05:30:32.597Z,6.02
2022-11-27T05:33:20.157Z,6.24
2022-11-27T05:36:07.706Z,5.68
2022-11-27T05:38:55.314Z,5.63
2022-11-27T05:41:42.888Z,5.80
2022-11-27T05:44:30.502Z,5.49
2022-11-27T05:47:18.098Z,5.26
2022-11-27T05:50:05.666Z,5.12
2022-11-27T05:52:53.238Z,5.10
2022-11-27T05:55:40.914Z,5.63
2022-11-27T05:58:30.465Z,5.96
2022-11-27T06:01:18.055Z,5.92
2022-11-27T06:04:05.633Z,5.72
2022-11-27T06:06:53.238Z,5.80
2022-11-27T06:09:40.832Z,5.90
2022-11-27T06:12:28.414Z,5.63
2022-11-27T06:15:16.006Z,6.26
2022-11-27T06:18:03.594Z,6.12
2022-11-27T06:20:53.085Z,6.11
2022-11-27T06:23:40.817Z,6.51
2022-11-27T06:26:28.398Z,6.84
2022-11-27T06:29:15.983Z,6.99
2022-11-27T06:32:03.709Z,7.05
2022-11-27T06:34:51.311Z,7.18
2022-11-27T06:37:38.933Z,7.11
2022-11-27T06:40:26.497Z,7.29
2022-11-27T06:43:14.080Z,7.39
2022-11-27T06:46:01.657Z,7.32
2022-11-27T06:48:49.274Z,7.17
2022-11-27T06:51:36.850Z,7.43
2022-11-27T06:54:24.412Z,7.86
2022-11-27T06:57:11.999Z,7.88
2022-11-27T06:59:59.566Z,7.74
2022-11-27T07:02:47.161Z,7.79
2022-11-27T07:05:34.752Z,7.67
2022-11-27T07:08:22.345Z,7.64
2022-11-27T07:11:09.915Z,7.42
2022-11-27T07:13:57.527Z,7.30
2022-11-27T07:16:45.132Z,7.53
2022-11-27T07:19:32.756Z,7.49
2022-11-27T07:22:20.328Z,7.78
2022-11-27T07:25:07.939Z,7.75
2022-11-27T07:27:55.537Z,7.72
2022-11-27T07:30:43.125Z,7.61
2022-11-27T07:33:30.706Z,7.94
2022-11-27T07:36:18.308Z,7.78
2022-11-27T07:39:05.977Z,7.87
2022-11-27T07:41:53.985Z,8.02
2022-11-27T07:44:45.896Z,7.83
2022-11-27T07:47:33.470Z,7.97
2022-11-27T07:50:21.060Z,6.77
2022-11-27T07:53:08.628Z,6.77
2022-11-27T07:55:56.276Z,6.80
2022-11-27T07:58:43.874Z,7.00
2022-11-27T08:01:31.556Z,7.41
2022-11-27T08:04:19.201Z,7.36
2022-11-27T08:07:06.827Z,7.57
2022-11-27T08:09:54.390Z,7.04
2022-11-27T08:12:41.969Z,6.91
2022-11-27T08:15:29.543Z,7.40
2022-11-27T08:18:17.153Z,7.17
2022-11-27T08:21:04.716Z,6.40
2022-11-27T08:23:52.305Z,6.56
2022-11-27T08:26:39.887Z,6.97
2022-11-27T08:29:32.607Z,7.05
2022-11-27T08:32:21.447Z,7.14
2022-11-27T08:35:09.034Z,7.33
2022-11-27T08:37:56.823Z,7.15
2022-11-27T08:40:44.407Z,7.02
2022-11-27T08:43:31.973Z,7.34
2022-11-27T08:46:19.641Z,7.70
2022-11-27T08:49:07.282Z,7.93
2022-11-27T08:51:54.857Z,8.21
2022-11-27T08:54:44.443Z,8.22
2022-11-27T08:57:32.014Z,6.62
2022-11-27T09:00:23.639Z,5.77
2022-11-27T09:03:14.037Z,4.86
2022-11-27T09:06:03.613Z,4.36
2022-11-27T09:08:51.185Z,5.13
2022-11-27T09:11:38.780Z,4.50
2022-11-27T09:14:26.355Z,4.50
2022-11-27T09:17:13.950Z,4.34
2022-11-27T09:20:01.507Z,5.01
2022-11-27T09:22:49.089Z,5.85
2022-11-27T09:25:36.710Z,5.81
2022-11-27T09:28:28.210Z,6.61
2022-11-27T09:31:18.839Z,6.86
2022-11-27T09:34:06.418Z,6.90
2022-11-27T09:36:53.989Z,7.46
2022-11-27T09:39:41.584Z,7.86
2022-11-27T09:42:29.182Z,8.21
2022-11-27T09:45:17.248Z,8.39
2022-11-27T09:48:04.863Z,8.49
2022-11-27T09:50:52.455Z,8.15
2022-11-27T09:53:40.047Z,8.44
2022-11-27T09:56:27.579Z,8.62
2022-11-27T09:59:15.187Z,9.00
2022-11-27T10:02:02.851Z,9.06
2022-11-27T10:05:12.895Z,9.01
2022-11-27T10:08:03.300Z,9.40
2022-11-27T10:10:53.804Z,9.48
2022-11-27T10:13:41.392Z,9.05
2022-11-27T10:16:29.046Z,9.27
2022-11-27T10:19:16.676Z,8.72
2022-11-27T10:22:04.243Z,8.33
2022-11-27T10:24:51.812Z,8.57
2022-11-27T10:27:39.393Z,9.34
2022-11-27T10:30:26.966Z,9.60
2022-11-27T10:33:14.575Z,9.49
2022-11-27T10:36:02.271Z,9.61
2022-11-27T10:38:49.871Z,9.99
2022-11-27T10:41:52.662Z,10.36
2022-11-27T10:44:40.542Z,10.70
2022-11-27T10:47:32.248Z,10.67
2022-11-27T10:50:21.161Z,9.48
2022-11-27T10:53:08.726Z,8.84
2022-11-27T10:55:56.324Z,7.72
2022-11-27T10:58:43.926Z,8.12
2022-11-27T11:01:31.590Z,8.46
2022-11-27T11:04:36.986Z,8.08
2022-11-27T11:07:25.464Z,7.84
2022-11-27T11:10:13.050Z,7.62
2022-11-27T11:13:00.617Z,7.45
2022-11-27T11:15:51.623Z,7.51
2022-11-27T11:18:39.581Z,7.93
2022-11-27T11:21:27.152Z,8.16
2022-11-27T11:24:14.716Z,8.56
2022-11-27T11:27:02.284Z,9.07
2022-11-27T11:29:49.881Z,9.06
2022-11-27T11:32:37.430Z,8.74
2022-11-27T11:35:24.990Z,8.28
2022-11-27T11:38:12.586Z,8.27
2022-11-27T11:41:00.161Z,8.91
2022-11-27T11:43:47.712Z,9.01
2022-11-27T11:46:37.363Z,8.98
2022-11-27T11:49:24.919Z,9.42
2022-11-27T11:52:12.477Z,9.05
2022-11-27T11:55:00.051Z,8.55
2022-11-27T11:57:47.642Z,8.42
2022-11-27T12:00:48.683Z,8.17
2022-11-27T12:03:42.714Z,8.41
2022-11-27T12:06:30.313Z,8.37
2022-11-27T12:09:17.961Z,8.89
2022-11-27T12:12:05.497Z,8.83
2022-11-27T12:14:53.065Z,8.92
2022-11-27T12:17:40.630Z,9.23
2022-11-27T12:20:28.202Z,9.57
2022-11-27T12:23:15.742Z,8.34
2022-11-27T12:26:03.335Z,8.64
2022-11-27T12:28:55.930Z,8.83
2022-11-27T12:31:46.517Z,8.53
2022-11-27T12:34:34.089Z,8.04
2022-11-27T12:37:21.649Z,7.79
2022-11-27T12:40:09.208Z,7.82
2022-11-27T12:42:56.807Z,7.48
2022-11-27T12:45:44.398Z,7.22
2022-11-27T12:48:31.992Z,7.79
2022-11-27T12:51:19.680Z,7.99
2022-11-27T12:54:09.225Z,8.09
2022-11-27T12:56:56.801Z,8.15
2022-11-27T12:59:44.385Z,8.76
2022-11-27T13:02:32.086Z,8.88
2022-11-27T13:05:19.700Z,8.31
2022-11-27T13:08:07.255Z,8.55
2022-11-27T13:10:54.818Z,8.89
2022-11-27T13:13:42.379Z,8.63
2022-11-27T13:16:29.984Z,9.07
2022-11-27T13:19:17.562Z,9.59
2022-11-27T13:22:05.118Z,9.54
2022-11-27T13:24:52.682Z,9.64
2022-11-27T13:27:40.209Z,9.73
2022-11-27T13:30:27.786Z,9.80
2022-11-27T13:33:15.385Z,9.80
2022-11-27T13:36:03.075Z,9.54
2022-11-27T13:38:30.623Z,9.52
2022-11-27T13:40:58.005Z,9.74
2022-11-27T13:43:25.398Z,9.86
2022-11-27T13:45:52.805Z,10.26
2022-11-27T13:48:20.230Z,10.46
2022-11-27T13:50:47.631Z,9.59
2022-11-27T13:53:15.030Z,9.32
2022-11-27T13:55:42.425Z,8.51
2022-11-27T13:58:09.823Z,8.61
2022-11-27T14:00:37.228Z,9.10
2022-11-27T14:03:04.585Z,9.47
2022-11-27T14:05:32.016Z,10.10
2022-11-27T14:07:59.477Z,10.45
2022-11-27T14:10:26.920Z,10.48
2022-11-27T14:12:54.398Z,10.61
2022-11-27T14:15:21.762Z,10.57
2022-11-27T14:17:49.156Z,9.47
2022-11-27T14:20:16.559Z,8.63
2022-11-27T14:23:07.182Z,8.45
2022-11-27T14:25:31.292Z,8.47
2022-11-27T14:27:58.674Z,7.76
2022-11-27T14:30:26.036Z,7.47
2022-11-27T14:32:53.443Z,7.32
2022-11-27T14:35:20.825Z,7.19
2022-11-27T14:37:48.212Z,7.10
2022-11-27T14:40:15.650Z,7.74
2022-11-27T14:42:43.128Z,8.37
2022-11-27T14:45:10.530Z,8.78
2022-11-27T14:47:37.902Z,9.28
2022-11-27T14:50:05.331Z,9.43
2022-11-27T14:52:32.717Z,9.17
2022-11-27T14:55:00.120Z,8.67
2022-11-27T14:57:27.496Z,8.57
2022-11-27T14:59:54.895Z,7.91
2022-11-27T15:02:27.588Z,8.13
2022-11-27T15:04:56.578Z,8.17
2022-11-27T15:07:24.002Z,8.47
2022-11-27T15:09:51.434Z,9.05
2022-11-27T15:12:18.826Z,9.46
2022-11-27T15:14:46.212Z,9.62
2022-11-27T15:17:13.579Z,10.03
2022-11-27T15:19:41.267Z,9.98
2022-11-27T15:22:08.885Z,9.82
2022-11-27T15:24:36.260Z,10.08
2022-11-27T15:27:03.620Z,9.21
2022-11-27T15:29:31.068Z,9.73
2022-11-27T15:31:58.472Z,9.27
2022-11-27T15:34:25.864Z,8.78
2022-11-27T15:36:53.247Z,8.19
2022-11-27T15:39:20.638Z,7.25
2022-11-27T15:41:48.043Z,6.72
2022-11-27T15:44:15.403Z,6.91
2022-11-27T15:46:42.782Z,6.97
2022-11-27T15:49:10.217Z,6.96
2022-11-27T15:51:37.645Z,7.46
2022-11-27T15:54:05.032Z,7.43
2022-11-27T15:56:32.403Z,8.16
2022-11-27T15:58:59.775Z,8.52
2022-11-27T16:01:27.266Z,8.67
2022-11-27T16:03:54.654Z,8.92
2022-11-27T16:06:22.030Z,9.21
2022-11-27T16:08:49.511Z,9.49
2022-11-27T16:11:16.875Z,9.59
2022-11-27T16:13:44.252Z,9.85
2022-11-27T16:16:11.674Z,10.01
2022-11-27T16:18:39.092Z,10.20
2022-11-27T16:21:06.485Z,10.22
2022-11-27T16:23:33.858Z,10.44
2022-11-27T16:26:01.230Z,10.30
2022-11-27T16:28:28.597Z,10.31
2022-11-27T16:30:56.019Z,10.21
2022-11-27T16:33:23.423Z,10.29
2022-11-27T16:35:50.773Z,10.23
2022-11-27T16:38:18.144Z,9.96
2022-11-27T16:40:45.579Z,10.00
2022-11-27T16:43:12.956Z,10.06
2022-11-27T16:45:40.468Z,10.48
2022-11-27T16:48:07.914Z,10.45
2022-11-27T16:50:35.293Z,9.22
2022-11-27T16:53:02.681Z,8.70
2022-11-27T16:55:30.049Z,8.60
2022-11-27T16:57:57.462Z,8.81
2022-11-27T17:00:24.870Z,8.95
2022-11-27T17:02:52.285Z,9.24
2022-11-27T17:05:19.653Z,8.87
2022-11-27T17:07:47.090Z,9.04
2022-11-27T17:10:14.554Z,8.93
2022-11-27T17:12:41.979Z,9.34
2022-11-27T17:15:09.349Z,9.38
2022-11-27T17:17:39.949Z,9.21
2022-11-27T17:20:07.726Z,9.00
2022-11-27T17:22:35.101Z,8.90
2022-11-27T17:25:02.465Z,8.78
2022-11-27T17:27:29.946Z,9.18
2022-11-27T17:29:57.380Z,8.80
2022-11-27T17:32:24.732Z,8.70
2022-11-27T17:34:52.099Z,8.67
2022-11-27T17:37:19.455Z,8.57
2022-11-27T17:39:46.829Z,8.63
2022-11-27T17:42:18.153Z,9.02
2022-11-27T17:44:48.506Z,9.35
2022-11-27T17:47:15.925Z,9.77
2022-11-27T17:49:43.554Z,9.79
2022-11-27T17:52:11.150Z,10.01
2022-11-27T17:54:38.501Z,10.29
2022-11-27T17:57:05.885Z,10.47
2022-11-27T17:59:33.246Z,10.59
2022-11-27T18:02:00.686Z,10.77
2022-11-27T18:04:28.191Z,10.90
2022-11-27T18:06:55.560Z,10.96
2022-11-27T18:09:22.937Z,10.85
2022-11-27T18:11:50.303Z,10.68
2022-11-27T18:14:17.670Z,10.87
2022-11-27T18:16:45.145Z,11.03
2022-11-27T18:19:12.550Z,11.01
2022-11-27T18:21:39.943Z,10.32
2022-11-27T18:24:24.440Z,10.05
2022-11-27T18:27:07.647Z,10.40
2022-11-27T18:29:35.827Z,10.16
2022-11-27T18:32:03.263Z,10.08
2022-11-27T18:34:30.693Z,9.47
2022-11-27T18:36:58.130Z,9.61
2022-11-27T18:39:25.524Z,9.14
2022-11-27T18:41:52.950Z,9.46
2022-11-27T18:44:20.329Z,9.77
2022-11-27T18:46:47.717Z,9.85
2022-11-27T18:49:15.143Z,9.99
2022-11-27T18:51:42.538Z,9.94
2022-11-27T18:54:09.910Z,9.96
2022-11-27T18:56:37.307Z,9.69
2022-11-27T18:59:04.658Z,9.26
2022-11-27T19:01:36.734Z,8.96
2022-11-27T19:04:05.717Z,9.01
2022-11-27T19:06:33.102Z,8.48
2022-11-27T19:09:00.493Z,8.31
2022-11-27T19:11:27.874Z,7.95
2022-11-27T19:13:55.251Z,8.17
2022-11-27T19:16:22.705Z,8.36
2022-11-27T19:18:50.137Z,8.66
2022-11-27T19:21:17.528Z,8.21
2022-11-27T19:23:44.905Z,8.32
2022-11-27T19:26:12.315Z,8.67
2022-11-27T19:28:39.710Z,8.65
2022-11-27T19:31:07.106Z,8.82
2022-11-27T19:33:34.481Z,8.61
2022-11-27T19:36:01.835Z,8.77
2022-11-27T19:38:29.218Z,9.11
2022-11-27T19:40:57.754Z,9.18
2022-11-27T19:43:25.130Z,9.74
2022-11-27T19:45:52.566Z,9.82
2022-11-27T19:48:23.128Z,10.17
2022-11-27T19:50:50.839Z,10.39
2022-11-27T19:53:18.241Z,10.44
2022-11-27T19:55:45.616Z,10.63
2022-11-27T19:58:12.990Z,10.46
2022-11-27T20:00:40.461Z,10.17
2022-11-27T20:03:07.874Z,10.12
2022-11-27T20:05:35.227Z,9.75
2022-11-27T20:08:02.651Z,9.68
2022-11-27T20:10:30.134Z,9.79
2022-11-27T20:12:57.519Z,10.11
2022-11-27T20:15:24.898Z,10.21
2022-11-27T20:17:52.295Z,10.49
2022-11-27T20:20:19.646Z,10.67
2022-11-27T20:22:47.004Z,10.68
2022-11-27T20:25:21.412Z,10.62
2022-11-27T20:27:48.817Z,10.16
2022-11-27T20:30:16.196Z,10.20
2022-11-27T20:32:43.578Z,9.90
2022-11-27T20:35:29.722Z,9.58
2022-11-27T20:38:17.304Z,9.56
2022-11-27T20:41:04.875Z,9.64
2022-11-27T20:43:52.441Z,9.01
2022-11-27T20:46:40.026Z,8.26
2022-11-27T20:49:27.590Z,8.23
2022-11-27T20:52:15.184Z,8.25
2022-11-27T20:55:02.748Z,8.43
2022-11-27T20:57:54.616Z,8.53
2022-11-27T21:00:42.483Z,8.46
2022-11-27T21:03:30.148Z,8.42
2022-11-27T21:06:17.711Z,8.22
2022-11-27T21:09:05.279Z,8.27
2022-11-27T21:11:52.848Z,7.93
2022-11-27T21:14:40.437Z,8.03
2022-11-27T21:17:27.992Z,8.17
2022-11-27T21:20:15.593Z,8.23
2022-11-27T21:23:03.145Z,8.37
2022-11-27T21:25:50.711Z,9.11
2022-11-27T21:28:38.277Z,9.34
2022-11-27T21:31:25.947Z,9.50
2022-11-27T21:34:13.535Z,9.46
2022-11-27T21:37:01.107Z,9.78
2022-11-27T21:39:48.673Z,9.46
2022-11-27T21:42:40.306Z,9.35
2022-11-27T21:45:30.727Z,9.09
2022-11-27T21:48:18.287Z,8.59
2022-11-27T21:51:05.854Z,8.49
2022-11-27T21:53:53.381Z,8.73
2022-11-27T21:56:40.944Z,8.11
2022-11-27T21:59:28.516Z,8.92
2022-11-27T22:02:16.155Z,9.17
2022-11-27T22:05:03.753Z,8.93
2022-11-27T22:07:51.418Z,8.88
2022-11-27T22:10:39.007Z,8.59
2022-11-27T22:13:26.565Z,8.63
2022-11-27T22:16:14.177Z,8.38
2022-11-27T22:19:01.764Z,8.64
2022-11-27T22:21:49.374Z,8.10
2022-11-27T22:24:36.942Z,8.09
2022-11-27T22:27:24.511Z,8.22
2022-11-27T22:30:12.083Z,8.20
2022-11-27T22:32:59.610Z,7.86
2022-11-27T22:35:47.205Z,7.81
2022-11-27T22:38:34.762Z,7.79
2022-11-27T22:41:22.350Z,7.87
2022-11-27T22:44:09.939Z,7.49
2022-11-27T22:46:57.521Z,7.93
2022-11-27T22:49:45.085Z,7.60
2022-11-27T22:52:32.668Z,8.02
2022-11-27T22:55:20.224Z,7.82
2022-11-27T22:58:09.775Z,7.55
2022-11-27T23:00:57.333Z,7.29
2022-11-27T23:03:44.965Z,7.38
2022-11-27T23:06:32.575Z,7.53
2022-11-27T23:09:20.144Z,7.57
2022-11-27T23:12:07.731Z,7.57
2022-11-27T23:14:55.295Z,7.49
2022-11-27T23:17:42.914Z,7.59
2022-11-27T23:20:30.502Z,7.56
2022-11-27T23:23:18.052Z,7.79
2022-11-27T23:26:05.629Z,7.71
2022-11-27T23:28:53.183Z,7.44
2022-11-27T23:31:40.867Z,7.15
2022-11-27T23:34:28.515Z,7.37
2022-11-27T23:37:16.129Z,7.80
2022-11-27T23:40:03.681Z,7.61
2022-11-27T23:42:51.255Z,7.16
2022-11-27T23:45:38.847Z,7.29
2022-11-27T23:48:26.406Z,7.54
2022-11-27T23:51:13.974Z,7.72
2022-11-27T23:54:01.519Z,7.50
2022-11-27T23:56:49.099Z,7.65
2022-11-27T23:59:36.673Z,7.60
